createdAt,value
2019-03-28T00:01:20.799Z,13.87
2019-03-28T00:03:47.191Z,13.07
2019-03-28T00:06:13.467Z,12.10
2019-03-28T00:08:39.879Z,11.80
2019-03-28T00:11:06.364Z,10.03
2019-03-28T00:13:32.987Z,11.57
2019-03-28T00:15:59.283Z,11.07
2019-03-28T00:18:25.651Z,9.60
2019-03-28T00:20:51.947Z,11.57
2019-03-28T00:23:24.187Z,11.93
2019-03-28T00:25:51.691Z,11.27
2019-03-28T00:28:17.963Z,10.20
2019-03-28T00:30:44.413Z,12.17
2019-03-28T00:33:10.928Z,10.83
2019-03-28T00:35:37.223Z,11.80
2019-03-28T00:38:03.847Z,12.80
2019-03-28T00:40:30.414Z,12.50
2019-03-28T00:42:56.739Z,14.13
2019-03-28T00:45:23.038Z,12.57
2019-03-28T00:47:49.535Z,13.77
2019-03-28T00:50:16.231Z,10.30
2019-03-28T00:52:42.965Z,10.90
2019-03-28T00:55:10.140Z,11.77
2019-03-28T00:57:36.541Z,11.03
2019-03-28T01:00:04.971Z,11.63
2019-03-28T01:02:32.651Z,11.47
2019-03-28T01:04:59.147Z,11.17
2019-03-28T01:07:25.759Z,12.93
2019-03-28T01:09:52.171Z,11.47
2019-03-28T01:12:18.835Z,11.67
2019-03-28T01:14:45.135Z,11.40
2019-03-28T01:17:11.701Z,11.80
2019-03-28T01:19:38.115Z,12.53
2019-03-28T01:22:04.691Z,10.77
2019-03-28T01:24:31.407Z,10.97
2019-03-28T01:26:58.925Z,14.20
2019-03-28T01:29:25.583Z,11.37
2019-03-28T01:31:51.852Z,12.77
2019-03-28T01:34:18.130Z,9.43
2019-03-28T01:36:44.803Z,10.83
2019-03-28T01:39:11.539Z,10.07
2019-03-28T01:41:37.962Z,10.20
2019-03-28T01:44:04.331Z,10.97
2019-03-28T01:46:30.744Z,12.43
2019-03-28T01:48:57.011Z,11.80
2019-03-28T01:51:23.607Z,10.27
2019-03-28T01:53:49.876Z,10.67
2019-03-28T01:56:16.170Z,13.23
2019-03-28T01:58:42.927Z,10.70
2019-03-28T02:01:09.520Z,10.53
2019-03-28T02:03:35.795Z,11.13
2019-03-28T02:06:02.284Z,12.50
2019-03-28T02:08:28.755Z,11.70
2019-03-28T02:10:55.071Z,11.33
2019-03-28T02:13:22.216Z,10.13
2019-03-28T02:15:48.907Z,11.13
2019-03-28T02:18:15.275Z,10.23
2019-03-28T02:20:42.036Z,10.50
2019-03-28T02:23:08.305Z,12.90
2019-03-28T02:25:35.008Z,10.93
2019-03-28T02:28:01.379Z,10.73
2019-03-28T02:30:30.179Z,9.20
2019-03-28T02:32:56.451Z,11.40
2019-03-28T02:35:22.759Z,11.03
2019-03-28T02:37:49.124Z,9.97
2019-03-28T02:40:16.764Z,9.47
2019-03-28T02:42:43.346Z,10.87
2019-03-28T02:45:10.361Z,11.93
2019-03-28T02:47:36.728Z,11.67
2019-03-28T02:50:07.345Z,10.90
2019-03-28T02:52:33.707Z,11.23
2019-03-28T02:55:00.001Z,9.37
2019-03-28T02:57:40.052Z,11.37
2019-03-28T02:59:54.780Z,13.80
2019-03-28T03:02:21.435Z,10.70
2019-03-28T03:04:47.703Z,12.20
2019-03-28T03:07:14.080Z,12.23
2019-03-28T03:09:40.350Z,10.77
2019-03-28T03:12:07.058Z,13.97
2019-03-28T03:14:33.600Z,12.10
2019-03-28T03:16:59.996Z,11.43
2019-03-28T03:19:26.368Z,10.93
2019-03-28T03:21:53.102Z,11.83
2019-03-28T03:24:19.369Z,12.47
2019-03-28T03:26:45.767Z,11.40
2019-03-28T03:29:12.123Z,10.27
2019-03-28T03:31:38.411Z,12.33
2019-03-28T03:34:05.358Z,11.73
2019-03-28T03:36:32.280Z,9.93
2019-03-28T03:38:58.639Z,10.47
2019-03-28T03:41:24.981Z,15.07
2019-03-28T03:43:51.348Z,10.43
2019-03-28T03:46:17.744Z,9.77
2019-03-28T03:48:44.018Z,14.37
2019-03-28T03:51:10.415Z,12.83
2019-03-28T03:53:36.691Z,12.00
2019-03-28T03:56:03.304Z,9.63
2019-03-28T03:58:29.672Z,11.50
2019-03-28T04:00:56.176Z,13.43
2019-03-28T04:03:22.552Z,9.83
2019-03-28T04:05:48.859Z,13.17
2019-03-28T04:08:15.249Z,11.40
2019-03-28T04:10:41.658Z,10.30
2019-03-28T04:13:07.929Z,12.70
2019-03-28T04:15:34.328Z,11.90
2019-03-28T04:18:01.820Z,10.20
2019-03-28T04:20:28.423Z,11.97
2019-03-28T04:22:54.792Z,12.43
2019-03-28T04:25:21.194Z,11.63
2019-03-28T04:27:47.587Z,11.53
2019-03-28T04:30:14.079Z,11.47
2019-03-28T04:32:40.458Z,10.47
2019-03-28T04:35:06.853Z,12.83
2019-03-28T04:37:34.324Z,11.60
2019-03-28T04:40:00.913Z,11.97
2019-03-28T04:42:27.356Z,11.97
2019-03-28T04:44:53.831Z,10.57
2019-03-28T04:47:20.127Z,10.57
2019-03-28T04:49:46.742Z,11.43
2019-03-28T04:52:13.043Z,9.60
2019-03-28T04:54:39.715Z,11.30
2019-03-28T04:57:06.009Z,12.30
2019-03-28T04:59:32.284Z,12.70
2019-03-28T05:02:03.208Z,13.87
2019-03-28T05:04:27.111Z,12.60
2019-03-28T05:06:53.604Z,14.27
2019-03-28T05:09:19.970Z,9.83
2019-03-28T05:11:46.278Z,15.47
2019-03-28T05:14:13.504Z,11.37
2019-03-28T05:16:39.800Z,11.60
2019-03-28T05:19:06.643Z,9.90
2019-03-28T05:21:33.036Z,12.27
2019-03-28T05:23:59.307Z,12.53
2019-03-28T05:26:25.622Z,9.87
2019-03-28T05:28:57.416Z,11.23
2019-03-28T05:31:20.174Z,11.13
2019-03-28T05:33:46.742Z,10.43
2019-03-28T05:36:13.128Z,10.73
2019-03-28T05:38:39.395Z,12.10
2019-03-28T05:41:05.708Z,11.03
2019-03-28T05:43:32.099Z,10.73
2019-03-28T05:45:58.393Z,15.37
2019-03-28T05:48:24.959Z,12.33
2019-03-28T05:50:51.574Z,14.87
2019-03-28T05:53:17.872Z,10.80
2019-03-28T05:55:44.566Z,11.00
2019-03-28T05:58:12.311Z,11.17
2019-03-28T06:00:39.111Z,11.83
2019-03-28T06:03:06.914Z,12.30
2019-03-28T06:05:33.357Z,13.43
2019-03-28T06:07:59.990Z,12.00
2019-03-28T06:10:26.250Z,10.80
2019-03-28T06:12:52.869Z,11.00
2019-03-28T06:15:19.134Z,12.17
2019-03-28T06:17:45.529Z,12.10
2019-03-28T06:20:12.467Z,13.23
2019-03-28T06:22:39.653Z,11.87
2019-03-28T06:25:06.883Z,15.23
2019-03-28T06:27:34.379Z,11.80
2019-03-28T06:30:02.223Z,15.27
2019-03-28T06:32:41.966Z,12.90
2019-03-28T06:34:57.097Z,12.73
2019-03-28T06:37:23.478Z,12.07
2019-03-28T06:39:49.867Z,11.73
2019-03-28T06:42:16.186Z,13.70
2019-03-28T06:44:42.627Z,11.97
2019-03-28T06:47:08.995Z,12.40
2019-03-28T06:49:35.266Z,13.33
2019-03-28T06:52:01.550Z,13.87
2019-03-28T06:54:27.816Z,13.37
2019-03-28T06:56:54.203Z,13.70
2019-03-28T06:59:20.596Z,13.47
2019-03-28T07:01:46.974Z,13.97
2019-03-28T07:04:13.587Z,14.10
2019-03-28T07:06:40.646Z,14.60
2019-03-28T07:09:07.884Z,15.70
2019-03-28T07:11:34.677Z,17.50
2019-03-28T07:14:01.815Z,14.03
2019-03-28T07:16:28.914Z,15.53
2019-03-28T07:18:55.175Z,15.67
2019-03-28T07:21:21.444Z,15.47
2019-03-28T07:23:47.829Z,13.13
2019-03-28T07:26:14.555Z,13.80
2019-03-28T07:28:41.423Z,13.47
2019-03-28T07:31:08.247Z,14.73
2019-03-28T07:33:34.718Z,15.60
2019-03-28T07:36:00.987Z,14.33
2019-03-28T07:38:27.292Z,13.40
2019-03-28T07:40:53.765Z,15.33
2019-03-28T07:43:20.302Z,15.87
2019-03-28T07:45:46.942Z,14.07
2019-03-28T07:48:13.334Z,15.20
2019-03-28T07:50:42.398Z,12.47
2019-03-28T07:53:07.778Z,16.27
2019-03-28T07:55:34.067Z,16.27
2019-03-28T07:58:00.647Z,14.27
2019-03-28T08:00:27.029Z,14.43
2019-03-28T08:02:53.294Z,17.13
2019-03-28T08:05:19.774Z,14.67
2019-03-28T08:07:47.111Z,15.30
2019-03-28T08:10:14.327Z,14.83
2019-03-28T08:12:41.514Z,15.27
2019-03-28T08:15:08.770Z,15.77
2019-03-28T08:17:35.387Z,15.37
2019-03-28T08:20:03.879Z,13.57
2019-03-28T08:22:30.256Z,17.37
2019-03-28T08:24:56.959Z,16.73
2019-03-28T08:27:23.680Z,15.93
2019-03-28T08:29:50.161Z,14.20
2019-03-28T08:32:18.431Z,15.33
2019-03-28T08:34:44.926Z,15.20
2019-03-28T08:37:11.648Z,17.27
2019-03-28T08:39:38.310Z,15.60
2019-03-28T08:42:05.787Z,18.00
2019-03-28T08:44:32.045Z,18.53
2019-03-28T08:46:58.627Z,19.53
2019-03-28T08:49:24.895Z,18.00
2019-03-28T08:51:51.313Z,17.03
2019-03-28T08:54:17.574Z,15.70
2019-03-28T08:56:43.958Z,17.43
2019-03-28T08:59:10.433Z,16.93
2019-03-28T09:01:37.030Z,20.87
2019-03-28T09:04:03.766Z,18.57
2019-03-28T09:06:30.278Z,18.73
2019-03-28T09:08:56.796Z,21.57
2019-03-28T09:11:23.472Z,21.97
2019-03-28T09:13:49.858Z,22.50
2019-03-28T09:16:16.243Z,19.23
2019-03-28T09:18:42.865Z,21.33
2019-03-28T09:21:09.363Z,19.90
2019-03-28T09:23:35.947Z,18.93
2019-03-28T09:26:04.583Z,23.00
2019-03-28T09:28:31.233Z,20.33
2019-03-28T09:30:57.943Z,17.60
2019-03-28T09:33:24.822Z,19.97
2019-03-28T09:35:51.348Z,18.50
2019-03-28T09:38:18.009Z,17.97
2019-03-28T09:40:44.486Z,19.33
2019-03-28T09:43:10.994Z,17.20
2019-03-28T09:45:38.371Z,17.47
2019-03-28T09:48:04.851Z,15.63
2019-03-28T09:50:31.127Z,16.50
2019-03-28T09:52:57.863Z,14.60
2019-03-28T09:55:24.511Z,15.17
2019-03-28T09:57:50.890Z,15.60
2019-03-28T10:00:18.766Z,19.30
2019-03-28T10:02:45.349Z,14.87
2019-03-28T10:05:12.390Z,15.50
2019-03-28T10:07:38.816Z,14.60
2019-03-28T10:10:09.062Z,16.90
2019-03-28T10:12:34.530Z,12.77
2019-03-28T10:15:03.250Z,11.37
2019-03-28T10:17:29.647Z,12.70
2019-03-28T10:19:55.932Z,10.70
2019-03-28T10:22:22.563Z,12.00
2019-03-28T10:24:49.091Z,12.07
2019-03-28T10:27:15.367Z,10.20
2019-03-28T10:29:42.135Z,10.30
2019-03-28T10:32:08.403Z,11.60
2019-03-28T10:34:34.791Z,10.97
2019-03-28T10:37:01.266Z,11.20
2019-03-28T10:39:27.987Z,11.13
2019-03-28T10:41:54.872Z,9.27
2019-03-28T10:44:21.470Z,9.30
2019-03-28T10:46:47.939Z,10.27
2019-03-28T10:49:15.668Z,9.97
2019-03-28T10:51:42.651Z,9.00
2019-03-28T10:54:19.304Z,8.67
2019-03-28T10:56:50.813Z,9.30
2019-03-28T10:59:05.527Z,11.77
2019-03-28T11:01:47.456Z,10.00
2019-03-28T11:04:00.088Z,8.90
2019-03-28T11:06:27.725Z,8.10
2019-03-28T11:08:54.010Z,8.63
2019-03-28T11:11:20.267Z,8.83
2019-03-28T11:13:46.580Z,10.83
2019-03-28T11:16:15.036Z,8.10
2019-03-28T11:18:42.778Z,9.13
2019-03-28T11:21:09.047Z,11.47
2019-03-28T11:23:35.347Z,10.33
2019-03-28T11:26:01.729Z,10.43
2019-03-28T11:28:28.116Z,8.23
2019-03-28T11:30:54.950Z,7.20
2019-03-28T11:33:22.213Z,8.53
2019-03-28T11:35:48.689Z,7.97
2019-03-28T11:38:14.976Z,7.20
2019-03-28T11:40:42.948Z,9.30
2019-03-28T11:43:09.740Z,8.97
2019-03-28T11:45:36.106Z,8.87
2019-03-28T11:48:02.798Z,6.80
2019-03-28T11:50:29.267Z,10.57
2019-03-28T11:52:55.936Z,8.77
2019-03-28T11:55:22.201Z,10.17
2019-03-28T11:57:48.782Z,8.30
2019-03-28T12:00:17.668Z,8.10
2019-03-28T12:02:44.270Z,8.40
2019-03-28T12:05:10.923Z,9.73
2019-03-28T12:07:37.523Z,7.47
2019-03-28T12:10:10.972Z,7.80
2019-03-28T12:12:38.690Z,9.13
2019-03-28T12:15:06.944Z,6.10
2019-03-28T12:17:33.314Z,7.63
2019-03-28T12:19:59.602Z,7.33
2019-03-28T12:22:26.075Z,7.87
2019-03-28T12:25:05.699Z,8.13
2019-03-28T12:27:32.071Z,7.73
2019-03-28T12:29:58.627Z,8.97
2019-03-28T12:32:24.894Z,8.20
2019-03-28T12:34:51.183Z,6.73
2019-03-28T12:37:17.839Z,9.47
2019-03-28T12:39:44.245Z,7.57
2019-03-28T12:42:10.526Z,10.50
2019-03-28T12:44:36.938Z,7.53
2019-03-28T12:47:03.569Z,8.90
2019-03-28T12:49:29.989Z,8.40
2019-03-28T12:51:56.347Z,8.23
2019-03-28T12:54:22.741Z,8.83
2019-03-28T12:56:49.007Z,9.87
2019-03-28T12:59:15.438Z,8.37
2019-03-28T13:01:41.801Z,7.10
2019-03-28T13:04:08.499Z,6.63
2019-03-28T13:06:34.877Z,7.50
2019-03-28T13:09:01.566Z,7.60
2019-03-28T13:11:30.062Z,7.13
2019-03-28T13:13:56.364Z,7.73
2019-03-28T13:16:22.639Z,8.97
2019-03-28T13:18:48.918Z,6.93
2019-03-28T13:21:15.196Z,8.40
2019-03-28T13:23:43.046Z,7.97
2019-03-28T13:26:09.690Z,8.13
2019-03-28T13:28:36.308Z,6.93
2019-03-28T13:31:02.676Z,9.47
2019-03-28T13:33:29.043Z,8.90
2019-03-28T13:35:55.357Z,8.87
2019-03-28T13:38:21.728Z,9.60
2019-03-28T13:40:48.050Z,8.87
2019-03-28T13:43:14.406Z,7.47
2019-03-28T13:45:40.918Z,8.80
2019-03-28T13:48:07.467Z,9.83
2019-03-28T13:50:33.756Z,8.27
2019-03-28T13:53:00.431Z,8.83
2019-03-28T13:55:27.079Z,8.43
2019-03-28T13:57:53.727Z,8.93
2019-03-28T14:00:29.027Z,7.70
2019-03-28T14:02:58.836Z,8.20
2019-03-28T14:05:23.586Z,7.40
2019-03-28T14:07:50.955Z,9.93
2019-03-28T14:10:17.335Z,8.83
2019-03-28T14:12:43.799Z,8.80
2019-03-28T14:15:10.521Z,9.93
2019-03-28T14:17:36.892Z,9.60
2019-03-28T14:20:06.061Z,9.07
2019-03-28T14:22:32.398Z,10.07
2019-03-28T14:25:00.420Z,10.60
2019-03-28T14:27:26.817Z,9.23
2019-03-28T14:29:53.202Z,10.47
2019-03-28T14:32:19.858Z,7.13
2019-03-28T14:34:46.327Z,10.77
2019-03-28T14:37:12.728Z,9.80
2019-03-28T14:39:39.467Z,8.67
2019-03-28T14:42:06.106Z,9.00
2019-03-28T14:44:32.834Z,8.33
2019-03-28T14:46:59.123Z,10.63
2019-03-28T14:49:25.715Z,7.93
2019-03-28T14:51:52.081Z,11.00
2019-03-28T14:54:18.477Z,8.73
2019-03-28T14:56:45.049Z,7.20
2019-03-28T14:59:12.431Z,7.40
2019-03-28T15:01:38.930Z,6.40
2019-03-28T15:04:05.208Z,8.30
2019-03-28T15:06:31.497Z,9.50
2019-03-28T15:08:57.969Z,9.00
2019-03-28T15:11:24.563Z,8.83
2019-03-28T15:13:50.948Z,9.33
2019-03-28T15:16:17.341Z,9.27
2019-03-28T15:18:43.897Z,8.67
2019-03-28T15:21:10.986Z,8.77
2019-03-28T15:23:37.311Z,6.97
2019-03-28T15:26:03.947Z,7.37
2019-03-28T15:28:30.410Z,6.80
2019-03-28T15:30:56.805Z,5.90
2019-03-28T15:33:23.217Z,6.83
2019-03-28T15:35:49.694Z,7.17
2019-03-28T15:38:17.152Z,8.20
2019-03-28T15:40:43.554Z,6.17
2019-03-28T15:43:09.815Z,9.23
2019-03-28T15:45:36.657Z,8.30
2019-03-28T15:48:03.230Z,7.40
2019-03-28T15:50:29.615Z,7.40
2019-03-28T15:52:55.975Z,6.67
2019-03-28T15:55:22.886Z,6.97
2019-03-28T15:57:49.533Z,6.23
2019-03-28T16:00:16.857Z,6.07
2019-03-28T16:02:43.229Z,6.70
2019-03-28T16:05:09.807Z,7.20
2019-03-28T16:07:36.162Z,6.73
2019-03-28T16:10:05.459Z,8.27
2019-03-28T16:12:32.011Z,6.23
2019-03-28T16:14:58.406Z,8.77
2019-03-28T16:17:25.082Z,6.10
2019-03-28T16:19:51.722Z,6.27
2019-03-28T16:22:17.983Z,6.43
2019-03-28T16:24:46.514Z,8.60
2019-03-28T16:27:12.662Z,6.57
2019-03-28T16:29:39.299Z,7.07
2019-03-28T16:32:06.158Z,7.30
2019-03-28T16:34:32.451Z,6.87
2019-03-28T16:36:59.164Z,7.57
2019-03-28T16:39:25.769Z,6.37
2019-03-28T16:41:52.402Z,5.83
2019-03-28T16:44:18.666Z,6.07
2019-03-28T16:46:45.011Z,8.50
2019-03-28T16:49:11.432Z,7.80
2019-03-28T16:51:37.906Z,7.83
2019-03-28T16:54:04.657Z,5.37
2019-03-28T16:56:31.067Z,7.57
2019-03-28T16:58:57.756Z,6.13
2019-03-28T17:01:24.568Z,8.27
2019-03-28T17:03:52.325Z,8.23
2019-03-28T17:06:19.209Z,6.53
2019-03-28T17:08:46.671Z,6.20
2019-03-28T17:11:12.981Z,6.70
2019-03-28T17:13:39.806Z,5.50
2019-03-28T17:16:06.419Z,7.03
2019-03-28T17:18:32.796Z,5.70
2019-03-28T17:20:59.217Z,6.53
2019-03-28T17:23:25.812Z,6.70
2019-03-28T17:25:52.690Z,6.20
2019-03-28T17:28:19.568Z,7.23
2019-03-28T17:30:46.064Z,6.53
2019-03-28T17:33:12.708Z,7.43
2019-03-28T17:35:40.223Z,7.57
2019-03-28T17:38:06.659Z,7.70
2019-03-28T17:40:33.058Z,7.37
2019-03-28T17:42:59.337Z,7.00
2019-03-28T17:45:25.992Z,7.00
2019-03-28T17:47:52.425Z,7.60
2019-03-28T17:50:18.771Z,6.20
2019-03-28T17:52:45.266Z,5.97
2019-03-28T17:55:12.225Z,7.23
2019-03-28T17:57:39.613Z,6.80
2019-03-28T18:00:07.030Z,8.87
2019-03-28T18:02:33.456Z,6.43
2019-03-28T18:05:09.045Z,7.90
2019-03-28T18:07:28.236Z,8.83
2019-03-28T18:09:54.604Z,9.27
2019-03-28T18:12:21.100Z,6.20
2019-03-28T18:14:47.618Z,8.63
2019-03-28T18:17:13.923Z,7.30
2019-03-28T18:19:40.300Z,7.20
2019-03-28T18:22:06.804Z,6.03
2019-03-28T18:24:33.683Z,8.93
2019-03-28T18:26:59.969Z,6.17
2019-03-28T18:29:27.122Z,7.03
2019-03-28T18:31:54.244Z,8.43
2019-03-28T18:34:20.819Z,5.87
2019-03-28T18:36:47.500Z,6.60
2019-03-28T18:39:14.314Z,7.03
2019-03-28T18:41:40.715Z,7.53
2019-03-28T18:44:07.084Z,9.93
2019-03-28T18:46:33.499Z,6.43
2019-03-28T18:48:59.836Z,7.33
2019-03-28T18:51:26.229Z,9.63
2019-03-28T18:53:52.611Z,8.23
2019-03-28T18:56:19.002Z,7.40
2019-03-28T18:58:45.270Z,6.60
2019-03-28T19:01:11.673Z,7.03
2019-03-28T19:03:58.022Z,8.73
2019-03-28T19:06:24.326Z,5.63
2019-03-28T19:08:50.803Z,8.70
2019-03-28T19:11:17.382Z,12.33
2019-03-28T19:13:44.122Z,11.83
2019-03-28T19:16:10.538Z,10.70
2019-03-28T19:18:36.800Z,10.13
2019-03-28T19:21:03.293Z,7.20
2019-03-28T19:23:29.566Z,6.67
2019-03-28T19:25:56.968Z,5.83
2019-03-28T19:28:28.957Z,7.93
2019-03-28T19:30:51.958Z,9.17
2019-03-28T19:33:18.611Z,7.30
2019-03-28T19:35:45.591Z,7.93
2019-03-28T19:38:12.262Z,7.77
2019-03-28T19:40:39.000Z,8.03
2019-03-28T19:43:19.233Z,7.00
2019-03-28T19:45:36.049Z,7.03
2019-03-28T19:48:04.015Z,10.27
2019-03-28T19:50:30.386Z,9.60
2019-03-28T19:52:56.680Z,9.33
2019-03-28T19:55:24.355Z,8.83
2019-03-28T19:57:50.958Z,8.93
2019-03-28T20:00:18.028Z,7.17
2019-03-28T20:02:44.510Z,8.60
2019-03-28T20:05:11.071Z,6.17
2019-03-28T20:07:37.463Z,7.27
2019-03-28T20:10:15.835Z,5.37
2019-03-28T20:12:35.320Z,5.63
2019-03-28T20:15:02.385Z,5.63
2019-03-28T20:17:29.208Z,5.60
2019-03-28T20:20:00.307Z,7.33
2019-03-28T20:22:27.599Z,5.27
2019-03-28T20:24:53.963Z,5.00
2019-03-28T20:27:20.358Z,5.43
2019-03-28T20:29:47.007Z,3.87
2019-03-28T20:32:13.422Z,6.50
2019-03-28T20:34:50.947Z,5.43
2019-03-28T20:37:19.168Z,5.63
2019-03-28T20:39:45.901Z,6.53
2019-03-28T20:42:12.686Z,5.20
2019-03-28T20:44:39.455Z,5.93
2019-03-28T20:47:05.977Z,5.10
2019-03-28T20:49:32.339Z,6.07
2019-03-28T20:51:58.640Z,4.77
2019-03-28T20:54:25.104Z,6.23
2019-03-28T20:56:51.827Z,5.23
2019-03-28T20:59:18.304Z,5.73
2019-03-28T21:01:44.979Z,4.37
2019-03-28T21:04:11.653Z,4.83
2019-03-28T21:06:38.130Z,4.60
2019-03-28T21:09:06.337Z,3.80
2019-03-28T21:11:32.795Z,4.97
2019-03-28T21:13:59.090Z,5.33
2019-03-28T21:16:25.353Z,5.83
2019-03-28T21:18:52.757Z,6.00
2019-03-28T21:21:19.226Z,5.33
2019-03-28T21:23:45.539Z,8.33
2019-03-28T21:26:12.008Z,4.87
2019-03-28T21:28:46.980Z,5.37
2019-03-28T21:31:07.198Z,5.33
2019-03-28T21:33:33.478Z,7.97
2019-03-28T21:35:59.746Z,4.77
2019-03-28T21:38:26.025Z,6.37
2019-03-28T21:40:53.164Z,6.53
2019-03-28T21:43:20.150Z,4.40
2019-03-28T21:45:46.516Z,5.27
2019-03-28T21:48:12.930Z,8.07
2019-03-28T21:50:39.289Z,5.57
2019-03-28T21:53:06.322Z,5.73
2019-03-28T21:55:33.611Z,5.93
2019-03-28T21:58:00.223Z,5.27
2019-03-28T22:00:26.874Z,4.87
2019-03-28T22:02:53.207Z,6.87
2019-03-28T22:05:19.550Z,7.60
2019-03-28T22:07:45.947Z,6.80
2019-03-28T22:10:12.599Z,7.20
2019-03-28T22:12:38.891Z,8.73
2019-03-28T22:15:06.455Z,6.17
2019-03-28T22:17:32.867Z,6.50
2019-03-28T22:19:59.122Z,8.53
2019-03-28T22:22:25.398Z,6.03
2019-03-28T22:24:52.116Z,6.60
2019-03-28T22:27:18.506Z,5.10
2019-03-28T22:29:45.115Z,7.07
2019-03-28T22:32:11.899Z,7.70
2019-03-28T22:34:38.369Z,5.83
2019-03-28T22:37:04.623Z,6.70
2019-03-28T22:39:30.906Z,5.37
2019-03-28T22:41:57.179Z,5.30
2019-03-28T22:44:24.223Z,7.57
2019-03-28T22:46:51.579Z,7.43
2019-03-28T22:49:17.898Z,7.37
2019-03-28T22:51:45.469Z,6.50
2019-03-28T22:54:11.766Z,5.93
2019-03-28T22:56:38.327Z,6.67
2019-03-28T22:59:04.623Z,7.37
2019-03-28T23:01:30.890Z,6.87
2019-03-28T23:03:57.503Z,7.23
2019-03-28T23:06:24.163Z,7.67
2019-03-28T23:08:50.713Z,7.70
2019-03-28T23:11:17.077Z,6.13
2019-03-28T23:13:43.367Z,6.23
2019-03-28T23:16:09.628Z,8.17
2019-03-28T23:18:36.221Z,8.30
2019-03-28T23:21:02.853Z,7.10
2019-03-28T23:23:29.594Z,6.53
2019-03-28T23:25:55.949Z,7.27
2019-03-28T23:28:22.363Z,6.93
2019-03-28T23:30:48.955Z,8.10
2019-03-28T23:33:15.278Z,5.90
2019-03-28T23:35:41.543Z,6.17
2019-03-28T23:38:08.206Z,7.87
2019-03-28T23:40:34.487Z,9.83
2019-03-28T23:43:01.134Z,10.10
2019-03-28T23:45:27.802Z,8.13
2019-03-28T23:47:54.062Z,7.73
2019-03-28T23:50:20.371Z,7.03
2019-03-28T23:52:46.733Z,9.50
2019-03-28T23:55:13.028Z,12.77
2019-03-28T23:57:39.479Z,9.47
